Time,TemperatureF,DewpointF,PressureIn,WindDirection,WindDirectionDegrees,WindSpeedMPH,WindSpeedGustMPH,Humidity,HourlyPrecipIn,Conditions,Clouds,dailyrainin,SoftwareType,DateUTC
2013-10-14 00:23:00,40.0,34.0,30.61,East,90,0.0,0.0,78,-99.99,,,-99.99,,2013-10-14 05:23:00,
2013-10-14 00:52:00,40.0,34.0,30.60,SE,135,0.0,0.0,78,-99.99,,,-99.99,,2013-10-14 05:52:00,
2013-10-14 01:22:00,39.0,33.0,30.61,SE,135,0.0,0.0,79,-99.99,,,-99.99,,2013-10-14 06:22:00,
2013-10-14 01:52:00,39.0,33.0,30.61,South,180,0.0,0.0,80,-99.99,,,-99.99,,2013-10-14 06:52:00,
2013-10-14 02:22:00,38.0,33.0,30.61,SE,135,0.0,0.0,81,-99.99,,,-99.99,,2013-10-14 07:22:00,
2013-10-14 02:42:00,38.0,33.0,30.61,SSE,157,0.0,0.0,81,-99.99,,,-99.99,,2013-10-14 07:42:00,
2013-10-14 02:52:00,38.0,33.0,30.62,SSE,157,0.0,0.0,81,-99.99,,,-99.99,,2013-10-14 07:52:00,
2013-10-14 03:22:00,37.0,32.0,30.62,ENE,67,0.0,0.0,82,-99.99,,,-99.99,,2013-10-14 08:22:00,
2013-10-14 03:52:00,37.0,33.0,30.62,ENE,67,0.0,0.0,84,-99.99,,,-99.99,,2013-10-14 08:52:00,
2013-10-14 04:22:00,36.0,32.0,30.61,ENE,67,0.0,0.0,84,-99.99,,,-99.99,,2013-10-14 09:22:00,
2013-10-14 04:43:00,36.0,32.0,30.61,ENE,67,0.0,0.0,84,-99.99,,,-99.99,,2013-10-14 09:43:00,
2013-10-14 04:53:00,36.0,32.0,30.61,ENE,67,0.0,0.0,85,-99.99,,,-99.99,,2013-10-14 09:53:00,
2013-10-14 05:23:00,36.0,32.0,30.62,ENE,67,0.0,0.0,85,-99.99,,,-99.99,,2013-10-14 10:23:00,
2013-10-14 05:53:00,35.0,31.0,30.61,ENE,67,0.0,0.0,86,-99.99,,,-99.99,,2013-10-14 10:53:00,
2013-10-14 06:22:00,35.0,31.0,30.61,ENE,67,0.0,0.0,85,-99.99,,,-99.99,,2013-10-14 11:22:00,
2013-10-14 06:42:00,35.0,31.0,30.60,ESE,112,0.0,0.0,85,-99.99,,,-99.99,,2013-10-14 11:42:00,
2013-10-14 06:52:00,35.0,31.0,30.60,ESE,112,0.0,0.0,85,-99.99,,,-99.99,,2013-10-14 11:52:00,
2013-10-14 07:22:00,35.0,31.0,30.60,ENE,67,0.0,0.0,86,-99.99,,,-99.99,,2013-10-14 12:22:00,
2013-10-14 07:42:00,35.0,31.0,30.60,ENE,67,0.0,0.0,86,-99.99,,,-99.99,,2013-10-14 12:42:00,
2013-10-14 07:52:00,35.0,31.0,30.60,ENE,67,0.0,0.0,86,-99.99,,,-99.99,,2013-10-14 12:52:00,
2013-10-14 08:11:00,35.0,32.0,30.59,ENE,67,0.0,0.0,87,-99.99,,,-99.99,,2013-10-14 13:11:00,
2013-10-14 08:21:00,35.0,32.0,30.58,ENE,67,0.0,0.0,87,-99.99,,,-99.99,,2013-10-14 13:21:00,
2013-10-14 08:42:00,36.0,33.0,30.58,NE,45,0.0,0.0,87,-99.99,,,-99.99,,2013-10-14 13:42:00,
2013-10-14 08:52:00,37.0,34.0,30.59,ENE,67,0.0,0.0,87,-99.99,,,-99.99,,2013-10-14 13:52:00,
2013-10-14 09:11:00,37.0,34.0,30.59,NE,45,0.0,0.0,87,-99.99,,,-99.99,,2013-10-14 14:11:00,
2013-10-14 09:22:00,39.0,35.0,30.59,NE,45,0.0,0.0,86,-99.99,,,-99.99,,2013-10-14 14:22:00,
2013-10-14 09:42:00,41.0,37.0,30.58,SE,135,0.0,0.0,85,-99.99,,,-99.99,,2013-10-14 14:42:00,
2013-10-14 09:52:00,44.0,39.0,30.57,East,90,0.0,2.0,82,-99.99,,,-99.99,,2013-10-14 14:52:00,
2013-10-14 10:21:00,45.0,39.0,30.58,South,180,0.0,0.0,78,-99.99,,,-99.99,,2013-10-14 15:21:00,
2013-10-14 10:54:00,48.0,40.0,30.58,SSE,157,0.0,0.0,74,-99.99,,,-99.99,,2013-10-14 15:54:00,
2013-10-14 11:23:00,51.0,42.0,30.58,SW,225,0.0,0.0,70,-99.99,,,-99.99,,2013-10-14 16:23:00,
2013-10-14 11:53:00,54.0,43.0,30.57,South,180,0.0,0.0,66,-99.99,,,-99.99,,2013-10-14 16:53:00,
2013-10-14 12:22:00,58.0,45.0,30.54,ENE,67,0.0,0.0,62,-99.99,,,-99.99,,2013-10-14 17:22:00,
2013-10-14 12:52:00,59.0,43.0,30.52,South,180,4.0,14.0,55,-99.99,,,-99.99,,2013-10-14 17:52:00,
2013-10-14 13:22:00,60.0,42.0,30.50,SSE,157,8.0,8.0,51,-99.99,,,-99.99,,2013-10-14 18:22:00,
2013-10-14 13:52:00,61.0,42.0,30.46,East,90,0.0,0.0,49,-99.99,,,-99.99,,2013-10-14 18:52:00,
2013-10-14 14:21:00,63.0,43.0,30.45,SSE,157,5.0,5.0,48,-99.99,,,-99.99,,2013-10-14 19:21:00,
2013-10-14 14:52:00,62.0,42.0,30.42,NE,45,0.0,0.0,48,-99.99,,,-99.99,,2013-10-14 19:52:00,
2013-10-14 15:22:00,64.0,43.0,30.40,SE,135,0.0,5.0,47,-99.99,,,-99.99,,2013-10-14 20:22:00,
2013-10-14 15:32:00,64.0,43.0,30.40,SE,135,0.0,5.0,47,-99.99,,,-99.99,,2013-10-14 20:32:00,
2013-10-14 15:52:00,63.0,44.0,30.39,NE,45,0.0,0.0,49,-99.99,,,-99.99,,2013-10-14 20:52:00,
2013-10-14 16:22:00,63.0,44.0,30.38,ENE,67,0.0,0.0,50,-99.99,,,-99.99,,2013-10-14 21:22:00,
2013-10-14 16:54:00,64.0,43.0,30.36,ENE,67,0.0,3.0,46,-99.99,,,-99.99,,2013-10-14 21:54:00,
2013-10-14 17:24:00,62.0,42.0,30.34,SE,135,0.0,0.0,48,-99.99,,,-99.99,,2013-10-14 22:24:00,
2013-10-14 17:54:00,61.0,42.0,30.34,SE,135,0.0,0.0,49,-99.99,,,-99.99,,2013-10-14 22:54:00,
2013-10-14 18:22:00,58.0,41.0,30.34,SSE,157,0.0,0.0,53,-99.99,,,-99.99,,2013-10-14 23:22:00,
2013-10-14 18:34:00,58.0,41.0,30.34,SSE,157,0.0,0.0,53,-99.99,,,-99.99,,2013-10-14 23:34:00,
2013-10-14 18:52:00,58.0,41.0,30.34,SSE,157,0.0,5.0,54,-99.99,,,-99.99,,2013-10-14 23:52:00,
2013-10-14 19:22:00,57.0,41.0,30.33,SE,135,2.0,2.0,56,-99.99,,,-99.99,,2013-10-15 00:22:00,
2013-10-14 19:52:00,56.0,42.0,30.33,South,180,0.0,0.0,59,-99.99,,,-99.99,,2013-10-15 00:52:00,
2013-10-14 20:22:00,55.0,41.0,30.32,SSE,157,0.0,0.0,60,-99.99,,,-99.99,,2013-10-15 01:22:00,
2013-10-14 20:52:00,55.0,42.0,30.30,SSE,157,0.0,0.0,61,-99.99,,,-99.99,,2013-10-15 01:52:00,
2013-10-14 21:22:00,54.0,42.0,30.30,SSE,157,0.0,0.0,63,-99.99,,,-99.99,,2013-10-15 02:22:00,
2013-10-14 21:52:00,54.0,42.0,30.29,SE,135,0.0,0.0,64,-99.99,,,-99.99,,2013-10-15 02:52:00,
2013-10-14 22:23:00,54.0,42.0,30.29,SE,135,0.0,3.0,64,-99.99,,,-99.99,,2013-10-15 03:23:00,
2013-10-14 22:55:00,54.0,42.0,30.26,East,90,0.0,5.0,64,-99.99,,,-99.99,,2013-10-15 03:55:00,
2013-10-14 23:14:00,53.0,42.0,30.26,ENE,67,7.0,7.0,65,-99.99,,,-99.99,,2013-10-15 04:14:00,
2013-10-14 23:24:00,53.0,42.0,30.25,East,90,0.0,11.0,65,-99.99,,,-99.99,,2013-10-15 04:24:00,
2013-10-14 23:54:00,53.0,42.0,30.25,SE,135,8.0,14.0,66,-99.99,,,-99.99,,2013-10-15 04:54:00,